sensor_id;sensor_type;location;lat;lon;timestamp;temperature;humidity
65766;SHT31;52915;53.718;19.946;2023-05-24T00:00:03;17.17;63.85
65766;SHT31;52915;53.718;19.946;2023-05-24T00:05:32;17.15;63.90
65766;SHT31;52915;53.718;19.946;2023-05-24T00:10:39;17.10;63.81
65766;SHT31;52915;53.718;19.946;2023-05-24T00:15:45;17.06;63.88
65766;SHT31;52915;53.718;19.946;2023-05-24T00:20:48;17.04;63.67
65766;SHT31;52915;53.718;19.946;2023-05-24T00:25:54;17.02;63.47
65766;SHT31;52915;53.718;19.946;2023-05-24T00:30:58;17.01;63.71
65766;SHT31;52915;53.718;19.946;2023-05-24T00:36:01;16.99;64.11
65766;SHT31;52915;53.718;19.946;2023-05-24T00:46:35;16.85;66.26
65766;SHT31;52915;53.718;19.946;2023-05-24T00:51:40;16.86;67.02
65766;SHT31;52915;53.718;19.946;2023-05-24T00:56:43;16.89;67.48
65766;SHT31;52915;53.718;19.946;2023-05-24T01:14:25;16.81;65.90
65766;SHT31;52915;53.718;19.946;2023-05-24T01:19:50;16.82;65.71
65766;SHT31;52915;53.718;19.946;2023-05-24T01:25:16;16.79;65.96
65766;SHT31;52915;53.718;19.946;2023-05-24T01:30:34;16.71;66.07
65766;SHT31;52915;53.718;19.946;2023-05-24T01:41:46;16.53;66.67
65766;SHT31;52915;53.718;19.946;2023-05-24T01:52:30;16.46;67.31
65766;SHT31;52915;53.718;19.946;2023-05-24T01:57:38;16.42;67.19
65766;SHT31;52915;53.718;19.946;2023-05-24T02:02:46;16.45;66.84
65766;SHT31;52915;53.718;19.946;2023-05-24T02:07:51;16.49;67.31
65766;SHT31;52915;53.718;19.946;2023-05-24T02:12:55;16.45;67.89
65766;SHT31;52915;53.718;19.946;2023-05-24T02:17:59;16.39;68.58
65766;SHT31;52915;53.718;19.946;2023-05-24T02:28:33;16.25;68.86
65766;SHT31;52915;53.718;19.946;2023-05-24T02:33:38;16.21;68.71
65766;SHT31;52915;53.718;19.946;2023-05-24T02:38:42;16.11;68.53
65766;SHT31;52915;53.718;19.946;2023-05-24T02:43:46;16.07;68.29
65766;SHT31;52915;53.718;19.946;2023-05-24T02:48:50;16.05;68.16
65766;SHT31;52915;53.718;19.946;2023-05-24T02:53:54;16.09;68.06
65766;SHT31;52915;53.718;19.946;2023-05-24T02:58:58;16.18;67.79
65766;SHT31;52915;53.718;19.946;2023-05-24T03:04:06;16.24;67.56
65766;SHT31;52915;53.718;19.946;2023-05-24T03:09:10;16.22;67.48
65766;SHT31;52915;53.718;19.946;2023-05-24T03:14:15;16.20;67.69
65766;SHT31;52915;53.718;19.946;2023-05-24T03:19:19;16.23;67.83
65766;SHT31;52915;53.718;19.946;2023-05-24T03:24:29;16.27;67.98
65766;SHT31;52915;53.718;19.946;2023-05-24T03:29:34;16.30;67.63
65766;SHT31;52915;53.718;19.946;2023-05-24T03:34:37;16.35;67.09
65766;SHT31;52915;53.718;19.946;2023-05-24T03:39:41;16.40;66.48
65766;SHT31;52915;53.718;19.946;2023-05-24T03:44:51;16.45;66.22
65766;SHT31;52915;53.718;19.946;2023-05-24T03:49:55;16.51;66.38
65766;SHT31;52915;53.718;19.946;2023-05-24T03:55:00;16.61;65.66
65766;SHT31;52915;53.718;19.946;2023-05-24T04:00:04;16.76;64.81
65766;SHT31;52915;53.718;19.946;2023-05-24T04:10:39;17.03;64.43
65766;SHT31;52915;53.718;19.946;2023-05-24T04:15:44;17.06;64.27
65766;SHT31;52915;53.718;19.946;2023-05-24T04:20:48;17.14;63.54
65766;SHT31;52915;53.718;19.946;2023-05-24T04:25:52;17.26;63.38
65766;SHT31;52915;53.718;19.946;2023-05-24T04:30:55;17.36;62.97
65766;SHT31;52915;53.718;19.946;2023-05-24T04:36:00;17.43;62.55
65766;SHT31;52915;53.718;19.946;2023-05-24T04:41:04;17.53;62.37
65766;SHT31;52915;53.718;19.946;2023-05-24T04:46:07;17.62;62.15
65766;SHT31;52915;53.718;19.946;2023-05-24T04:51:12;17.67;61.28
65766;SHT31;52915;53.718;19.946;2023-05-24T04:56:18;17.67;60.85
65766;SHT31;52915;53.718;19.946;2023-05-24T05:37:45;18.49;59.89
65766;SHT31;52915;53.718;19.946;2023-05-24T05:48:43;18.93;58.79
65766;SHT31;52915;53.718;19.946;2023-05-24T05:53:48;19.09;58.14
65766;SHT31;52915;53.718;19.946;2023-05-24T05:58:54;19.32;57.76
65766;SHT31;52915;53.718;19.946;2023-05-24T06:04:04;19.54;57.52
65766;SHT31;52915;53.718;19.946;2023-05-24T06:28:53;20.68;54.70
65766;SHT31;52915;53.718;19.946;2023-05-24T06:55:30;22.45;51.60
65766;SHT31;52915;53.718;19.946;2023-05-24T07:00:40;23.04;50.60
65766;SHT31;52915;53.718;19.946;2023-05-24T07:05:46;23.58;48.96
65766;SHT31;52915;53.718;19.946;2023-05-24T07:10:56;23.88;47.32
65766;SHT31;52915;53.718;19.946;2023-05-24T07:16:00;24.06;44.69
65766;SHT31;52915;53.718;19.946;2023-05-24T07:21:04;24.09;44.59
65766;SHT31;52915;53.718;19.946;2023-05-24T07:26:08;24.33;44.56
65766;SHT31;52915;53.718;19.946;2023-05-24T07:31:16;24.66;45.07
65766;SHT31;52915;53.718;19.946;2023-05-24T07:36:24;25.14;44.74
65766;SHT31;52915;53.718;19.946;2023-05-24T07:41:36;25.55;43.53
65766;SHT31;52915;53.718;19.946;2023-05-24T08:12:04;26.39;36.79
65766;SHT31;52915;53.718;19.946;2023-05-24T08:43:44;26.69;37.59
65766;SHT31;52915;53.718;19.946;2023-05-24T08:54:50;27.61;35.24
65766;SHT31;52915;53.718;19.946;2023-05-24T09:18:50;27.88;33.52
65766;SHT31;52915;53.718;19.946;2023-05-24T09:24:01;28.09;32.33
65766;SHT31;52915;53.718;19.946;2023-05-24T09:35:32;28.22;31.69
65766;SHT31;52915;53.718;19.946;2023-05-24T09:47:04;28.33;32.17
65766;SHT31;52915;53.718;19.946;2023-05-24T10:12:43;29.12;28.91
65766;SHT31;52915;53.718;19.946;2023-05-24T10:17:49;28.97;29.68
65766;SHT31;52915;53.718;19.946;2023-05-24T10:23:00;29.12;29.57
65766;SHT31;52915;53.718;19.946;2023-05-24T10:34:09;28.59;30.78
65766;SHT31;52915;53.718;19.946;2023-05-24T11:26:26;30.46;29.17
65766;SHT31;52915;53.718;19.946;2023-05-24T12:03:40;29.75;28.75
65766;SHT31;52915;53.718;19.946;2023-05-24T12:08:45;29.67;28.85
65766;SHT31;52915;53.718;19.946;2023-05-24T12:19:47;29.09;28.74
65766;SHT31;52915;53.718;19.946;2023-05-24T12:24:54;28.87;28.93
65766;SHT31;52915;53.718;19.946;2023-05-24T12:30:06;28.82;29.49
65766;SHT31;52915;53.718;19.946;2023-05-24T12:35:12;28.86;29.85
65766;SHT31;52915;53.718;19.946;2023-05-24T12:55:06;28.25;31.73
65766;SHT31;52915;53.718;19.946;2023-05-24T13:00:15;28.08;31.19
65766;SHT31;52915;53.718;19.946;2023-05-24T13:05:19;27.76;32.24
65766;SHT31;52915;53.718;19.946;2023-05-24T13:10:25;27.37;32.94
65766;SHT31;52915;53.718;19.946;2023-05-24T13:15:30;27.21;33.10
65766;SHT31;52915;53.718;19.946;2023-05-24T13:20:41;27.08;32.81
65766;SHT31;52915;53.718;19.946;2023-05-24T13:37:11;27.22;33.71
65766;SHT31;52915;53.718;19.946;2023-05-24T13:42:26;27.41;33.44
65766;SHT31;52915;53.718;19.946;2023-05-24T14:47:03;28.75;32.54
65766;SHT31;52915;53.718;19.946;2023-05-24T14:52:24;28.74;32.82
65766;SHT31;52915;53.718;19.946;2023-05-24T15:04:34;28.31;34.17
65766;SHT31;52915;53.718;19.946;2023-05-24T15:43:35;27.01;34.94
65766;SHT31;52915;53.718;19.946;2023-05-24T16:00:25;28.25;33.99
65766;SHT31;52915;53.718;19.946;2023-05-24T16:18:06;28.30;34.33
65766;SHT31;52915;53.718;19.946;2023-05-24T16:29:32;27.65;35.31
65766;SHT31;52915;53.718;19.946;2023-05-24T17:00:43;27.57;35.54
65766;SHT31;52915;53.718;19.946;2023-05-24T17:06:00;27.52;35.92
65766;SHT31;52915;53.718;19.946;2023-05-24T17:11:08;27.30;36.53
65766;SHT31;52915;53.718;19.946;2023-05-24T17:16:14;27.05;37.12
65766;SHT31;52915;53.718;19.946;2023-05-24T17:35:11;26.04;38.96
65766;SHT31;52915;53.718;19.946;2023-05-24T17:51:45;25.23;39.76
65766;SHT31;52915;53.718;19.946;2023-05-24T17:56:51;24.94;40.27
65766;SHT31;52915;53.718;19.946;2023-05-24T18:01:56;24.72;40.83
65766;SHT31;52915;53.718;19.946;2023-05-24T18:07:01;24.48;41.52
65766;SHT31;52915;53.718;19.946;2023-05-24T18:12:06;24.29;42.21
65766;SHT31;52915;53.718;19.946;2023-05-24T18:17:12;24.03;42.97
65766;SHT31;52915;53.718;19.946;2023-05-24T18:41:02;23.05;46.38
65766;SHT31;52915;53.718;19.946;2023-05-24T19:05:56;22.27;48.47
65766;SHT31;52915;53.718;19.946;2023-05-24T19:28:15;21.97;49.40
65766;SHT31;52915;53.718;19.946;2023-05-24T19:47:37;21.55;54.67
65766;SHT31;52915;53.718;19.946;2023-05-24T20:02:30;21.17;56.26
65766;SHT31;52915;53.718;19.946;2023-05-24T20:22:08;20.90;55.49
65766;SHT31;52915;53.718;19.946;2023-05-24T21:05:25;20.45;58.06
65766;SHT31;52915;53.718;19.946;2023-05-24T21:10:35;20.41;58.32
65766;SHT31;52915;53.718;19.946;2023-05-24T21:15:40;20.16;59.01
65766;SHT31;52915;53.718;19.946;2023-05-24T21:20:47;20.09;59.38
65766;SHT31;52915;53.718;19.946;2023-05-24T21:31:21;19.85;58.72
65766;SHT31;52915;53.718;19.946;2023-05-24T21:36:32;19.70;58.67
65766;SHT31;52915;53.718;19.946;2023-05-24T21:41:37;19.65;58.78
65766;SHT31;52915;53.718;19.946;2023-05-24T21:46:46;19.62;58.72
65766;SHT31;52915;53.718;19.946;2023-05-24T21:51:51;19.61;58.75
65766;SHT31;52915;53.718;19.946;2023-05-24T21:57:01;19.53;58.74
65766;SHT31;52915;53.718;19.946;2023-05-24T22:02:06;19.48;59.03
65766;SHT31;52915;53.718;19.946;2023-05-24T22:07:09;19.48;59.47
65766;SHT31;52915;53.718;19.946;2023-05-24T22:12:13;19.42;60.21
65766;SHT31;52915;53.718;19.946;2023-05-24T22:17:17;19.36;60.67
65766;SHT31;52915;53.718;19.946;2023-05-24T22:22:21;19.27;61.55
65766;SHT31;52915;53.718;19.946;2023-05-24T22:27:25;19.17;62.60
65766;SHT31;52915;53.718;19.946;2023-05-24T22:32:29;19.10;63.21
65766;SHT31;52915;53.718;19.946;2023-05-24T22:37:36;18.97;63.85
65766;SHT31;52915;53.718;19.946;2023-05-24T22:42:41;18.83;64.25
65766;SHT31;52915;53.718;19.946;2023-05-24T22:47:45;18.80;64.46
65766;SHT31;52915;53.718;19.946;2023-05-24T22:52:51;18.74;65.03
65766;SHT31;52915;53.718;19.946;2023-05-24T22:57:58;18.63;65.97
65766;SHT31;52915;53.718;19.946;2023-05-24T23:03:03;18.47;66.95
65766;SHT31;52915;53.718;19.946;2023-05-24T23:08:10;18.25;68.16
65766;SHT31;52915;53.718;19.946;2023-05-24T23:13:16;18.14;68.25
65766;SHT31;52915;53.718;19.946;2023-05-24T23:18:21;18.03;68.31
65766;SHT31;52915;53.718;19.946;2023-05-24T23:23:28;17.92;68.60
65766;SHT31;52915;53.718;19.946;2023-05-24T23:28:32;17.77;69.02
65766;SHT31;52915;53.718;19.946;2023-05-24T23:39:57;17.35;70.07
65766;SHT31;52915;53.718;19.946;2023-05-24T23:45:04;17.21;70.49
65766;SHT31;52915;53.718;19.946;2023-05-24T23:50:09;17.10;70.57
65766;SHT31;52915;53.718;19.946;2023-05-24T23:55:14;16.97;70.80
